sensor_id;sensor_type;location;lat;lon;timestamp;pressure;altitude;pressure_sealevel;temperature;humidity
55191;BME280;41070;50.360;18.742;2022-12-13T00:02:29;98057.09;;;-3.99;90.35
55191;BME280;41070;50.360;18.742;2022-12-13T00:05:01;98058.82;;;-3.99;89.96
55191;BME280;41070;50.360;18.742;2022-12-13T00:07:33;98059.83;;;-3.99;89.76
55191;BME280;41070;50.360;18.742;2022-12-13T00:10:04;98057.77;;;-3.97;89.73
55191;BME280;41070;50.360;18.742;2022-12-13T00:12:36;98059.55;;;-3.96;89.47
55191;BME280;41070;50.360;18.742;2022-12-13T00:15:07;98058.48;;;-3.98;88.99
55191;BME280;41070;50.360;18.742;2022-12-13T00:17:39;98066.15;;;-3.99;88.78
55191;BME280;41070;50.360;18.742;2022-12-13T00:20:11;98062.22;;;-4.01;88.98
55191;BME280;41070;50.360;18.742;2022-12-13T00:22:43;98063.27;;;-4.00;89.38
55191;BME280;41070;50.360;18.742;2022-12-13T00:25:14;98064.31;;;-3.96;88.87
55191;BME280;41070;50.360;18.742;2022-12-13T00:27:52;98063.16;;;-3.99;88.95
55191;BME280;41070;50.360;18.742;2022-12-13T00:30:24;98067.76;;;-3.99;89.26
55191;BME280;41070;50.360;18.742;2022-12-13T00:33:02;98069.48;;;-3.99;88.84
55191;BME280;41070;50.360;18.742;2022-12-13T00:35:33;98067.26;;;-4.00;88.80
55191;BME280;41070;50.360;18.742;2022-12-13T00:38:09;98064.63;;;-3.99;88.76
55191;BME280;41070;50.360;18.742;2022-12-13T00:40:39;98067.71;;;-4.00;88.40
55191;BME280;41070;50.360;18.742;2022-12-13T00:43:11;98077.85;;;-4.01;88.31
55191;BME280;41070;50.360;18.742;2022-12-13T00:45:43;98081.26;;;-4.01;88.29
55191;BME280;41070;50.360;18.742;2022-12-13T00:48:13;98088.36;;;-4.03;88.44
55191;BME280;41070;50.360;18.742;2022-12-13T00:50:44;98094.73;;;-4.05;88.15
55191;BME280;41070;50.360;18.742;2022-12-13T00:53:15;98093.58;;;-4.07;88.22
55191;BME280;41070;50.360;18.742;2022-12-13T00:55:46;98094.36;;;-4.06;88.17
55191;BME280;41070;50.360;18.742;2022-12-13T00:58:17;98090.80;;;-4.07;88.13
55191;BME280;41070;50.360;18.742;2022-12-13T01:00:48;98098.95;;;-4.10;87.57
55191;BME280;41070;50.360;18.742;2022-12-13T01:03:20;98095.02;;;-4.12;87.61
55191;BME280;41070;50.360;18.742;2022-12-13T01:05:54;98092.66;;;-4.14;87.72
55191;BME280;41070;50.360;18.742;2022-12-13T01:08:26;98091.21;;;-4.13;87.70
55191;BME280;41070;50.360;18.742;2022-12-13T01:10:58;98095.30;;;-4.12;87.95
55191;BME280;41070;50.360;18.742;2022-12-13T01:13:33;98094.77;;;-4.13;87.76
55191;BME280;41070;50.360;18.742;2022-12-13T01:16:07;98094.39;;;-4.14;87.71
55191;BME280;41070;50.360;18.742;2022-12-13T01:18:34;98093.66;;;-4.13;87.70
55191;BME280;41070;50.360;18.742;2022-12-13T01:21:13;98094.92;;;-4.14;87.81
55191;BME280;41070;50.360;18.742;2022-12-13T01:23:40;98094.66;;;-4.13;87.53
55191;BME280;41070;50.360;18.742;2022-12-13T01:26:10;98096.39;;;-4.11;87.76
55191;BME280;41070;50.360;18.742;2022-12-13T01:28:36;98098.65;;;-4.09;87.90
55191;BME280;41070;50.360;18.742;2022-12-13T01:31:06;98105.59;;;-4.07;88.00
55191;BME280;41070;50.360;18.742;2022-12-13T01:33:33;98105.23;;;-4.09;87.50
55191;BME280;41070;50.360;18.742;2022-12-13T01:36:00;98107.95;;;-4.08;87.80
55191;BME280;41070;50.360;18.742;2022-12-13T01:38:28;98105.08;;;-4.07;88.21
55191;BME280;41070;50.360;18.742;2022-12-13T01:40:55;98103.51;;;-4.05;87.92
55191;BME280;41070;50.360;18.742;2022-12-13T01:43:49;98099.89;;;-4.05;87.89
55191;BME280;41070;50.360;18.742;2022-12-13T01:46:16;98097.60;;;-4.05;88.02
55191;BME280;41070;50.360;18.742;2022-12-13T01:48:48;98097.77;;;-4.05;87.89
55191;BME280;41070;50.360;18.742;2022-12-13T01:51:19;98095.52;;;-4.04;87.76
55191;BME280;41070;50.360;18.742;2022-12-13T01:53:48;98093.54;;;-4.03;87.88
55191;BME280;41070;50.360;18.742;2022-12-13T01:56:22;98096.10;;;-4.02;87.55
55191;BME280;41070;50.360;18.742;2022-12-13T01:58:53;98093.79;;;-4.05;87.76
55191;BME280;41070;50.360;18.742;2022-12-13T02:01:20;98098.34;;;-4.04;88.05
55191;BME280;41070;50.360;18.742;2022-12-13T02:03:47;98098.13;;;-4.03;88.28
55191;BME280;41070;50.360;18.742;2022-12-13T02:06:17;98093.06;;;-4.03;88.00
55191;BME280;41070;50.360;18.742;2022-12-13T02:12:26;98097.08;;;-4.04;88.21
55191;BME280;41070;50.360;18.742;2022-12-13T02:14:53;98099.48;;;-4.06;87.99
55191;BME280;41070;50.360;18.742;2022-12-13T02:25:58;98099.37;;;-4.10;88.20
55191;BME280;41070;50.360;18.742;2022-12-13T02:31:44;98103.45;;;-4.09;88.52
55191;BME280;41070;50.360;18.742;2022-12-13T02:34:24;98106.23;;;-4.09;88.51
55191;BME280;41070;50.360;18.742;2022-12-13T02:37:04;98103.45;;;-4.10;88.86
55191;BME280;41070;50.360;18.742;2022-12-13T02:39:43;98104.96;;;-4.09;88.70
55191;BME280;41070;50.360;18.742;2022-12-13T02:42:24;98102.94;;;-4.07;88.64
55191;BME280;41070;50.360;18.742;2022-12-13T02:45:04;98102.77;;;-4.05;88.87
55191;BME280;41070;50.360;18.742;2022-12-13T02:47:38;98098.86;;;-4.04;88.89
55191;BME280;41070;50.360;18.742;2022-12-13T02:50:14;98099.08;;;-4.01;88.78
55191;BME280;41070;50.360;18.742;2022-12-13T02:52:46;98100.69;;;-3.99;88.93
55191;BME280;41070;50.360;18.742;2022-12-13T02:55:19;98102.21;;;-3.98;88.66
55191;BME280;41070;50.360;18.742;2022-12-13T02:57:50;98107.19;;;-3.98;88.58
55191;BME280;41070;50.360;18.742;2022-12-13T03:00:26;98110.20;;;-4.01;88.47
55191;BME280;41070;50.360;18.742;2022-12-13T03:03:16;98105.71;;;-4.02;88.88
55191;BME280;41070;50.360;18.742;2022-12-13T03:11:43;98109.90;;;-4.01;88.89
55191;BME280;41070;50.360;18.742;2022-12-13T03:14:32;98103.83;;;-4.01;88.98
55191;BME280;41070;50.360;18.742;2022-12-13T03:17:01;98105.24;;;-4.00;88.73
55191;BME280;41070;50.360;18.742;2022-12-13T03:19:30;98105.23;;;-4.00;89.05
55191;BME280;41070;50.360;18.742;2022-12-13T03:22:04;98106.86;;;-4.01;89.09
55191;BME280;41070;50.360;18.742;2022-12-13T03:24:35;98102.01;;;-4.02;88.88
55191;BME280;41070;50.360;18.742;2022-12-13T03:27:06;98111.15;;;-4.03;88.61
55191;BME280;41070;50.360;18.742;2022-12-13T03:29:38;98109.11;;;-4.03;88.99
55191;BME280;41070;50.360;18.742;2022-12-13T03:32:09;98114.96;;;-4.04;88.73
55191;BME280;41070;50.360;18.742;2022-12-13T03:34:41;98113.59;;;-4.06;88.60
55191;BME280;41070;50.360;18.742;2022-12-13T03:37:13;98117.05;;;-4.08;89.10
55191;BME280;41070;50.360;18.742;2022-12-13T03:39:48;98118.13;;;-4.10;88.87
55191;BME280;41070;50.360;18.742;2022-12-13T03:42:20;98113.73;;;-4.13;88.84
55191;BME280;41070;50.360;18.742;2022-12-13T03:44:50;98117.19;;;-4.14;88.68
55191;BME280;41070;50.360;18.742;2022-12-13T03:47:22;98116.81;;;-4.16;88.91
55191;BME280;41070;50.360;18.742;2022-12-13T03:49:54;98117.08;;;-4.15;88.91
55191;BME280;41070;50.360;18.742;2022-12-13T03:52:28;98119.95;;;-4.14;88.76
55191;BME280;41070;50.360;18.742;2022-12-13T03:54:59;98118.49;;;-4.13;89.25
55191;BME280;41070;50.360;18.742;2022-12-13T03:57:30;98119.54;;;-4.11;89.15
55191;BME280;41070;50.360;18.742;2022-12-13T04:00:01;98121.07;;;-4.08;88.91
55191;BME280;41070;50.360;18.742;2022-12-13T04:02:33;98122.02;;;-4.04;89.24
55191;BME280;41070;50.360;18.742;2022-12-13T04:05:04;98121.77;;;-3.99;89.33
55191;BME280;41070;50.360;18.742;2022-12-13T04:07:33;98121.46;;;-3.92;89.50
55191;BME280;41070;50.360;18.742;2022-12-13T04:10:06;98123.41;;;-3.87;89.56
55191;BME280;41070;50.360;18.742;2022-12-13T04:12:37;98125.35;;;-3.86;89.13
55191;BME280;41070;50.360;18.742;2022-12-13T04:15:25;98127.44;;;-3.84;89.20
55191;BME280;41070;50.360;18.742;2022-12-13T04:18:09;98125.88;;;-3.85;89.11
55191;BME280;41070;50.360;18.742;2022-12-13T04:20:39;98127.54;;;-3.86;89.21
55191;BME280;41070;50.360;18.742;2022-12-13T04:23:09;98125.86;;;-3.84;89.38
55191;BME280;41070;50.360;18.742;2022-12-13T04:25:42;98123.36;;;-3.85;89.03
55191;BME280;41070;50.360;18.742;2022-12-13T04:28:12;98131.04;;;-3.85;88.80
55191;BME280;41070;50.360;18.742;2022-12-13T04:30:42;98130.94;;;-3.87;88.93
55191;BME280;41070;50.360;18.742;2022-12-13T04:33:12;98132.50;;;-3.88;88.90
55191;BME280;41070;50.360;18.742;2022-12-13T04:35:43;98133.04;;;-3.87;88.98
55191;BME280;41070;50.360;18.742;2022-12-13T04:38:13;98129.90;;;-3.85;89.32
55191;BME280;41070;50.360;18.742;2022-12-13T04:40:43;98132.31;;;-3.82;88.90
55191;BME280;41070;50.360;18.742;2022-12-13T04:43:13;98130.36;;;-3.85;88.97
55191;BME280;41070;50.360;18.742;2022-12-13T04:45:43;98131.00;;;-3.83;89.08
55191;BME280;41070;50.360;18.742;2022-12-13T04:48:13;98136.75;;;-3.81;89.09
55191;BME280;41070;50.360;18.742;2022-12-13T04:50:44;98134.73;;;-3.79;89.03
55191;BME280;41070;50.360;18.742;2022-12-13T04:53:15;98137.48;;;-3.78;89.01
55191;BME280;41070;50.360;18.742;2022-12-13T04:55:49;98133.45;;;-3.84;88.57
55191;BME280;41070;50.360;18.742;2022-12-13T04:58:21;98132.04;;;-3.86;88.69
55191;BME280;41070;50.360;18.742;2022-12-13T05:00:52;98132.40;;;-3.87;88.77
55191;BME280;41070;50.360;18.742;2022-12-13T05:03:24;98131.73;;;-3.86;89.06
55191;BME280;41070;50.360;18.742;2022-12-13T05:05:54;98132.36;;;-3.86;88.82
55191;BME280;41070;50.360;18.742;2022-12-13T05:08:25;98133.97;;;-3.91;88.61
55191;BME280;41070;50.360;18.742;2022-12-13T05:10:55;98137.30;;;-3.95;88.80
55191;BME280;41070;50.360;18.742;2022-12-13T05:13:26;98139.38;;;-3.99;88.82
55191;BME280;41070;50.360;18.742;2022-12-13T05:16:02;98139.17;;;-3.99;88.87
55191;BME280;41070;50.360;18.742;2022-12-13T05:18:37;98140.02;;;-3.95;88.92
55191;BME280;41070;50.360;18.742;2022-12-13T05:21:10;98143.79;;;-3.96;88.65
55191;BME280;41070;50.360;18.742;2022-12-13T05:23:42;98142.16;;;-3.99;89.04
55191;BME280;41070;50.360;18.742;2022-12-13T05:26:14;98143.37;;;-3.97;88.96
55191;BME280;41070;50.360;18.742;2022-12-13T05:28:45;98143.73;;;-3.99;88.70
55191;BME280;41070;50.360;18.742;2022-12-13T05:31:12;98139.86;;;-4.01;88.73
55191;BME280;41070;50.360;18.742;2022-12-13T05:33:38;98146.23;;;-4.02;88.84
55191;BME280;41070;50.360;18.742;2022-12-13T05:36:05;98143.17;;;-4.08;88.87
55191;BME280;41070;50.360;18.742;2022-12-13T05:38:31;98148.51;;;-4.09;88.75
55191;BME280;41070;50.360;18.742;2022-12-13T05:40:58;98145.34;;;-4.13;88.89
55191;BME280;41070;50.360;18.742;2022-12-13T05:43:24;98143.34;;;-4.19;88.72
55191;BME280;41070;50.360;18.742;2022-12-13T05:45:51;98144.00;;;-4.26;88.71
55191;BME280;41070;50.360;18.742;2022-12-13T05:48:17;98137.94;;;-4.28;88.79
55191;BME280;41070;50.360;18.742;2022-12-13T05:50:43;98138.81;;;-4.31;88.76
55191;BME280;41070;50.360;18.742;2022-12-13T05:53:12;98136.14;;;-4.34;89.15
55191;BME280;41070;50.360;18.742;2022-12-13T05:55:40;98138.95;;;-4.34;88.88
55191;BME280;41070;50.360;18.742;2022-12-13T05:58:06;98140.98;;;-4.37;88.98
55191;BME280;41070;50.360;18.742;2022-12-13T06:00:32;98140.56;;;-4.38;89.12
55191;BME280;41070;50.360;18.742;2022-12-13T06:03:01;98146.00;;;-4.38;89.10
55191;BME280;41070;50.360;18.742;2022-12-13T06:05:29;98151.53;;;-4.39;89.01
55191;BME280;41070;50.360;18.742;2022-12-13T06:07:55;98151.80;;;-4.39;89.05
55191;BME280;41070;50.360;18.742;2022-12-13T06:10:22;98154.98;;;-4.41;88.90
55191;BME280;41070;50.360;18.742;2022-12-13T06:12:48;98161.39;;;-4.42;89.15
55191;BME280;41070;50.360;18.742;2022-12-13T06:15:15;98160.92;;;-4.42;88.84
55191;BME280;41070;50.360;18.742;2022-12-13T06:17:41;98164.05;;;-4.43;89.03
55191;BME280;41070;50.360;18.742;2022-12-13T06:20:08;98161.58;;;-4.45;89.09
55191;BME280;41070;50.360;18.742;2022-12-13T06:22:34;98165.38;;;-4.49;89.03
55191;BME280;41070;50.360;18.742;2022-12-13T06:25:01;98164.17;;;-4.51;89.02
55191;BME280;41070;50.360;18.742;2022-12-13T06:27:27;98162.63;;;-4.53;89.10
55191;BME280;41070;50.360;18.742;2022-12-13T06:29:53;98163.09;;;-4.57;89.10
55191;BME280;41070;50.360;18.742;2022-12-13T06:32:19;98168.20;;;-4.60;89.05
55191;BME280;41070;50.360;18.742;2022-12-13T06:34:46;98171.27;;;-4.64;88.96
55191;BME280;41070;50.360;18.742;2022-12-13T06:37:12;98172.77;;;-4.65;89.03
55191;BME280;41070;50.360;18.742;2022-12-13T06:39:39;98177.93;;;-4.66;88.98
55191;BME280;41070;50.360;18.742;2022-12-13T06:42:09;98175.48;;;-4.64;89.17
55191;BME280;41070;50.360;18.742;2022-12-13T06:44:40;98181.30;;;-4.61;89.45
55191;BME280;41070;50.360;18.742;2022-12-13T06:47:06;98179.70;;;-4.60;89.21
55191;BME280;41070;50.360;18.742;2022-12-13T06:49:33;98179.44;;;-4.59;89.30
55191;BME280;41070;50.360;18.742;2022-12-13T06:51:59;98180.48;;;-4.57;89.04
55191;BME280;41070;50.360;18.742;2022-12-13T06:54:25;98183.23;;;-4.59;89.08
55191;BME280;41070;50.360;18.742;2022-12-13T06:56:54;98185.80;;;-4.60;88.88
55191;BME280;41070;50.360;18.742;2022-12-13T06:59:20;98186.78;;;-4.61;89.04
55191;BME280;41070;50.360;18.742;2022-12-13T07:01:47;98193.41;;;-4.62;88.79
55191;BME280;41070;50.360;18.742;2022-12-13T07:04:13;98191.20;;;-4.65;88.58
55191;BME280;41070;50.360;18.742;2022-12-13T07:06:39;98194.85;;;-4.67;88.92
55191;BME280;41070;50.360;18.742;2022-12-13T07:09:05;98192.21;;;-4.71;88.42
55191;BME280;41070;50.360;18.742;2022-12-13T07:11:32;98194.79;;;-4.77;88.40
55191;BME280;41070;50.360;18.742;2022-12-13T07:13:59;98201.41;;;-4.77;88.82
55191;BME280;41070;50.360;18.742;2022-12-13T07:16:26;98205.20;;;-4.73;88.85
55191;BME280;41070;50.360;18.742;2022-12-13T07:18:54;98208.63;;;-4.67;89.01
55191;BME280;41070;50.360;18.742;2022-12-13T07:21:21;98212.02;;;-4.60;89.24
55191;BME280;41070;50.360;18.742;2022-12-13T07:23:48;98214.31;;;-4.51;89.07
55191;BME280;41070;50.360;18.742;2022-12-13T07:26:15;98218.28;;;-4.42;88.91
55191;BME280;41070;50.360;18.742;2022-12-13T07:28:42;98220.34;;;-4.37;88.77
55191;BME280;41070;50.360;18.742;2022-12-13T07:31:09;98222.80;;;-4.37;88.50
55191;BME280;41070;50.360;18.742;2022-12-13T07:33:35;98229.12;;;-4.37;88.65
55191;BME280;41070;50.360;18.742;2022-12-13T07:36:03;98227.34;;;-4.38;88.67
55191;BME280;41070;50.360;18.742;2022-12-13T07:38:32;98228.39;;;-4.37;88.66
55191;BME280;41070;50.360;18.742;2022-12-13T07:40:59;98230.17;;;-4.35;88.42
55191;BME280;41070;50.360;18.742;2022-12-13T07:43:25;98234.67;;;-4.35;88.28
55191;BME280;41070;50.360;18.742;2022-12-13T07:45:51;98231.74;;;-4.37;88.26
55191;BME280;41070;50.360;18.742;2022-12-13T07:48:18;98229.76;;;-4.38;88.18
55191;BME280;41070;50.360;18.742;2022-12-13T07:50:45;98229.48;;;-4.39;87.85
55191;BME280;41070;50.360;18.742;2022-12-13T07:53:11;98231.79;;;-4.37;87.92
55191;BME280;41070;50.360;18.742;2022-12-13T07:59:21;98239.13;;;-4.23;87.99
55191;BME280;41070;50.360;18.742;2022-12-13T08:01:47;98243.45;;;-4.16;87.61
55191;BME280;41070;50.360;18.742;2022-12-13T08:04:14;98244.44;;;-4.15;87.32
55191;BME280;41070;50.360;18.742;2022-12-13T08:06:40;98242.95;;;-4.09;87.19
55191;BME280;41070;50.360;18.742;2022-12-13T08:09:06;98244.02;;;-4.06;86.80
55191;BME280;41070;50.360;18.742;2022-12-13T08:11:32;98245.76;;;-4.04;86.72
55191;BME280;41070;50.360;18.742;2022-12-13T08:13:59;98244.23;;;-4.05;86.59
55191;BME280;41070;50.360;18.742;2022-12-13T08:16:25;98243.13;;;-4.05;86.42
55191;BME280;41070;50.360;18.742;2022-12-13T08:18:51;98245.02;;;-4.03;86.24
55191;BME280;41070;50.360;18.742;2022-12-13T08:21:18;98247.02;;;-4.00;86.32
55191;BME280;41070;50.360;18.742;2022-12-13T08:23:45;98249.63;;;-4.02;85.98
55191;BME280;41070;50.360;18.742;2022-12-13T08:26:16;98247.96;;;-4.00;85.73
55191;BME280;41070;50.360;18.742;2022-12-13T08:28:42;98243.95;;;-3.96;85.39
55191;BME280;41070;50.360;18.742;2022-12-13T08:31:11;98244.61;;;-3.90;85.66
55191;BME280;41070;50.360;18.742;2022-12-13T08:33:39;98245.30;;;-3.84;85.35
55191;BME280;41070;50.360;18.742;2022-12-13T08:36:10;98248.16;;;-3.70;85.44
55191;BME280;41070;50.360;18.742;2022-12-13T08:38:37;98252.62;;;-3.54;85.81
55191;BME280;41070;50.360;18.742;2022-12-13T08:41:04;98257.02;;;-3.44;85.36
55191;BME280;41070;50.360;18.742;2022-12-13T08:43:31;98255.95;;;-3.33;85.48
55191;BME280;41070;50.360;18.742;2022-12-13T08:45:57;98258.80;;;-3.26;85.01
55191;BME280;41070;50.360;18.742;2022-12-13T08:48:23;98258.23;;;-3.18;85.11
55191;BME280;41070;50.360;18.742;2022-12-13T08:50:50;98255.93;;;-3.05;85.14
55191;BME280;41070;50.360;18.742;2022-12-13T08:53:16;98254.95;;;-2.94;84.41
55191;BME280;41070;50.360;18.742;2022-12-13T08:55:43;98257.66;;;-2.85;84.47
55191;BME280;41070;50.360;18.742;2022-12-13T08:58:10;98262.71;;;-2.79;84.30
55191;BME280;41070;50.360;18.742;2022-12-13T09:00:37;98263.79;;;-2.71;84.67
55191;BME280;41070;50.360;18.742;2022-12-13T09:03:03;98266.84;;;-2.64;84.74
55191;BME280;41070;50.360;18.742;2022-12-13T09:05:30;98268.34;;;-2.56;84.47
55191;BME280;41070;50.360;18.742;2022-12-13T09:07:58;98269.49;;;-2.53;84.43
55191;BME280;41070;50.360;18.742;2022-12-13T09:10:27;98267.98;;;-2.52;83.84
55191;BME280;41070;50.360;18.742;2022-12-13T09:12:55;98268.49;;;-2.52;83.60
55191;BME280;41070;50.360;18.742;2022-12-13T09:15:24;98267.23;;;-2.51;84.01
55191;BME280;41070;50.360;18.742;2022-12-13T09:17:51;98267.02;;;-2.48;83.90
55191;BME280;41070;50.360;18.742;2022-12-13T09:20:17;98270.98;;;-2.38;83.94
55191;BME280;41070;50.360;18.742;2022-12-13T09:22:45;98272.98;;;-2.32;83.90
55191;BME280;41070;50.360;18.742;2022-12-13T09:25:13;98268.89;;;-2.32;83.56
55191;BME280;41070;50.360;18.742;2022-12-13T09:27:39;98269.60;;;-2.26;83.29
55191;BME280;41070;50.360;18.742;2022-12-13T09:30:07;98266.39;;;-2.22;83.13
55191;BME280;41070;50.360;18.742;2022-12-13T09:32:36;98272.67;;;-2.17;82.97
55191;BME280;41070;50.360;18.742;2022-12-13T09:35:19;98271.68;;;-2.17;82.59
55191;BME280;41070;50.360;18.742;2022-12-13T09:37:45;98276.09;;;-2.18;82.75
55191;BME280;41070;50.360;18.742;2022-12-13T09:40:23;98274.34;;;-2.14;82.39
55191;BME280;41070;50.360;18.742;2022-12-13T09:42:56;98274.70;;;-2.04;82.46
55191;BME280;41070;50.360;18.742;2022-12-13T09:45:23;98275.98;;;-1.98;82.04
55191;BME280;41070;50.360;18.742;2022-12-13T09:47:50;98278.44;;;-1.94;82.23
55191;BME280;41070;50.360;18.742;2022-12-13T09:50:23;98277.01;;;-1.90;82.17
55191;BME280;41070;50.360;18.742;2022-12-13T09:52:51;98276.77;;;-1.94;82.03
55191;BME280;41070;50.360;18.742;2022-12-13T09:55:21;98270.17;;;-2.02;82.03
55191;BME280;41070;50.360;18.742;2022-12-13T09:57:49;98268.31;;;-2.12;81.59
55191;BME280;41070;50.360;18.742;2022-12-13T10:00:20;98275.05;;;-2.20;81.33
55191;BME280;41070;50.360;18.742;2022-12-13T10:02:49;98277.17;;;-2.31;80.95
55191;BME280;41070;50.360;18.742;2022-12-13T10:07:53;98276.77;;;-2.52;80.69
55191;BME280;41070;50.360;18.742;2022-12-13T10:10:20;98276.67;;;-2.55;80.48
55191;BME280;41070;50.360;18.742;2022-12-13T10:13:20;98273.42;;;-2.55;80.35
55191;BME280;41070;50.360;18.742;2022-12-13T10:15:58;98272.16;;;-2.47;80.65
55191;BME280;41070;50.360;18.742;2022-12-13T10:18:34;98271.09;;;-2.38;80.44
55191;BME280;41070;50.360;18.742;2022-12-13T10:21:13;98269.11;;;-2.41;80.31
55191;BME280;41070;50.360;18.742;2022-12-13T10:23:44;98268.12;;;-2.42;80.33
55191;BME280;41070;50.360;18.742;2022-12-13T10:32:26;98260.69;;;-2.21;80.13
55191;BME280;41070;50.360;18.742;2022-12-13T10:34:57;98258.84;;;-2.17;80.28
55191;BME280;41070;50.360;18.742;2022-12-13T10:37:30;98258.67;;;-2.11;80.51
55191;BME280;41070;50.360;18.742;2022-12-13T10:39:57;98259.48;;;-2.03;80.33
55191;BME280;41070;50.360;18.742;2022-12-13T10:42:31;98258.17;;;-2.05;80.16
55191;BME280;41070;50.360;18.742;2022-12-13T10:45:14;98257.77;;;-2.07;80.08
55191;BME280;41070;50.360;18.742;2022-12-13T10:47:42;98260.69;;;-2.04;79.85
55191;BME280;41070;50.360;18.742;2022-12-13T10:50:26;98256.27;;;-2.03;80.30
55191;BME280;41070;50.360;18.742;2022-12-13T10:52:55;98253.33;;;-1.98;80.23
55191;BME280;41070;50.360;18.742;2022-12-13T10:55:31;98259.00;;;-1.99;79.92
55191;BME280;41070;50.360;18.742;2022-12-13T10:58:01;98259.33;;;-2.02;79.78
55191;BME280;41070;50.360;18.742;2022-12-13T11:00:30;98257.98;;;-2.11;79.75
55191;BME280;41070;50.360;18.742;2022-12-13T11:03:01;98252.83;;;-2.21;79.60
55191;BME280;41070;50.360;18.742;2022-12-13T11:05:33;98248.56;;;-2.20;79.71
55191;BME280;41070;50.360;18.742;2022-12-13T11:08:22;98251.50;;;-2.15;79.76
55191;BME280;41070;50.360;18.742;2022-12-13T11:11:02;98251.33;;;-2.11;79.73
55191;BME280;41070;50.360;18.742;2022-12-13T11:13:32;98251.08;;;-2.19;78.71
55191;BME280;41070;50.360;18.742;2022-12-13T11:16:31;98252.72;;;-2.23;79.21
55191;BME280;41070;50.360;18.742;2022-12-13T11:19:04;98250.39;;;-2.34;78.85
55191;BME280;41070;50.360;18.742;2022-12-13T11:21:35;98253.02;;;-2.50;78.43
55191;BME280;41070;50.360;18.742;2022-12-13T11:24:06;98249.16;;;-2.63;78.10
55191;BME280;41070;50.360;18.742;2022-12-13T11:26:37;98249.02;;;-2.69;78.61
55191;BME280;41070;50.360;18.742;2022-12-13T11:32:11;98246.81;;;-2.74;77.45
55191;BME280;41070;50.360;18.742;2022-12-13T11:37:53;98243.31;;;-2.72;78.26
55191;BME280;41070;50.360;18.742;2022-12-13T11:40:28;98240.28;;;-2.79;78.34
55191;BME280;41070;50.360;18.742;2022-12-13T11:43:19;98236.46;;;-2.80;78.54
55191;BME280;41070;50.360;18.742;2022-12-13T11:45:55;98237.24;;;-2.80;78.48
55191;BME280;41070;50.360;18.742;2022-12-13T11:48:55;98239.09;;;-2.77;78.36
55191;BME280;41070;50.360;18.742;2022-12-13T11:51:32;98242.89;;;-2.75;78.41
55191;BME280;41070;50.360;18.742;2022-12-13T11:54:09;98244.11;;;-2.73;78.76
55191;BME280;41070;50.360;18.742;2022-12-13T11:56:42;98243.73;;;-2.73;78.59
55191;BME280;41070;50.360;18.742;2022-12-13T12:02:32;98241.02;;;-2.74;77.47
55191;BME280;41070;50.360;18.742;2022-12-13T12:05:04;98240.28;;;-2.81;76.58
55191;BME280;41070;50.360;18.742;2022-12-13T12:07:38;98237.45;;;-2.79;76.96
55191;BME280;41070;50.360;18.742;2022-12-13T12:10:27;98236.04;;;-2.75;76.73
55191;BME280;41070;50.360;18.742;2022-12-13T12:13:05;98242.73;;;-2.70;76.56
55191;BME280;41070;50.360;18.742;2022-12-13T12:15:40;98242.77;;;-2.63;77.30
55191;BME280;41070;50.360;18.742;2022-12-13T12:18:15;98238.86;;;-2.59;77.58
55191;BME280;41070;50.360;18.742;2022-12-13T12:21:06;98245.55;;;-2.52;77.78
55191;BME280;41070;50.360;18.742;2022-12-13T12:23:55;98244.39;;;-2.50;77.50
55191;BME280;41070;50.360;18.742;2022-12-13T12:26:40;98240.55;;;-2.47;77.51
55191;BME280;41070;50.360;18.742;2022-12-13T12:29:33;98241.91;;;-2.45;76.73
55191;BME280;41070;50.360;18.742;2022-12-13T12:32:37;98243.91;;;-2.48;76.85
55191;BME280;41070;50.360;18.742;2022-12-13T12:43:20;98242.66;;;-2.57;77.60
55191;BME280;41070;50.360;18.742;2022-12-13T12:51:18;98234.15;;;-2.68;77.90
55191;BME280;41070;50.360;18.742;2022-12-13T12:54:25;98235.45;;;-2.69;78.09
55191;BME280;41070;50.360;18.742;2022-12-13T12:59:52;98236.04;;;-2.85;77.96
55191;BME280;41070;50.360;18.742;2022-12-13T13:02:30;98234.31;;;-2.90;78.10
55191;BME280;41070;50.360;18.742;2022-12-13T13:05:12;98239.60;;;-3.00;78.01
55191;BME280;41070;50.360;18.742;2022-12-13T13:07:45;98241.02;;;-3.07;78.31
55191;BME280;41070;50.360;18.742;2022-12-13T13:10:18;98241.84;;;-3.13;78.11
55191;BME280;41070;50.360;18.742;2022-12-13T13:12:45;98244.78;;;-3.16;78.44
55191;BME280;41070;50.360;18.742;2022-12-13T13:18:00;98248.11;;;-3.23;78.84
55191;BME280;41070;50.360;18.742;2022-12-13T13:20:28;98248.22;;;-3.27;78.59
55191;BME280;41070;50.360;18.742;2022-12-13T13:22:57;98247.16;;;-3.29;78.69
55191;BME280;41070;50.360;18.742;2022-12-13T13:25:35;98247.52;;;-3.30;78.61
55191;BME280;41070;50.360;18.742;2022-12-13T13:28:16;98253.76;;;-3.30;78.64
55191;BME280;41070;50.360;18.742;2022-12-13T13:33:45;98258.52;;;-3.32;77.54
55191;BME280;41070;50.360;18.742;2022-12-13T13:39:04;98257.30;;;-3.43;77.69
55191;BME280;41070;50.360;18.742;2022-12-13T13:42:18;98257.92;;;-3.44;78.05
55191;BME280;41070;50.360;18.742;2022-12-13T13:55:42;98257.23;;;-3.20;78.70
55191;BME280;41070;50.360;18.742;2022-12-13T14:03:58;98265.29;;;-3.21;78.49
55191;BME280;41070;50.360;18.742;2022-12-13T14:07:01;98272.24;;;-3.27;78.26
55191;BME280;41070;50.360;18.742;2022-12-13T14:20:54;98273.42;;;-3.60;79.27
55191;BME280;41070;50.360;18.742;2022-12-13T14:26:25;98284.02;;;-3.76;80.38
55191;BME280;41070;50.360;18.742;2022-12-13T14:29:00;98279.55;;;-3.74;80.60
55191;BME280;41070;50.360;18.742;2022-12-13T14:31:35;98280.47;;;-3.76;80.43
55191;BME280;41070;50.360;18.742;2022-12-13T14:34:04;98285.75;;;-3.77;80.58
55191;BME280;41070;50.360;18.742;2022-12-13T14:36:34;98282.98;;;-3.79;80.78
55191;BME280;41070;50.360;18.742;2022-12-13T14:41:49;98278.64;;;-3.79;80.89
55191;BME280;41070;50.360;18.742;2022-12-13T14:44:20;98278.02;;;-3.75;81.20
55191;BME280;41070;50.360;18.742;2022-12-13T14:46:55;98286.04;;;-3.72;80.99
55191;BME280;41070;50.360;18.742;2022-12-13T14:49:24;98287.03;;;-3.69;81.29
55191;BME280;41070;50.360;18.742;2022-12-13T14:51:57;98284.80;;;-3.66;81.30
55191;BME280;41070;50.360;18.742;2022-12-13T14:54:28;98285.64;;;-3.64;81.32
55191;BME280;41070;50.360;18.742;2022-12-13T14:56:59;98288.88;;;-3.64;81.59